sensor_id;sensor_type;location;lat;lon;timestamp;pressure;altitude;pressure_sealevel;temperature;humidity
72428;BME280;60419;48.880;18.036;2022-12-18T00:02:34;100521.06;;;-7.18;78.12
72428;BME280;60419;48.880;18.036;2022-12-18T00:05:20;100529.88;;;-7.01;77.38
72428;BME280;60419;48.880;18.036;2022-12-18T00:08:05;100527.63;;;-6.88;77.15
72428;BME280;60419;48.880;18.036;2022-12-18T00:10:50;100527.63;;;-7.22;77.42
72428;BME280;60419;48.880;18.036;2022-12-18T00:13:37;100538.47;;;-7.17;77.30
72428;BME280;60419;48.880;18.036;2022-12-18T00:16:24;100544.03;;;-7.20;77.81
72428;BME280;60419;48.880;18.036;2022-12-18T00:19:10;100536.31;;;-7.22;77.58
72428;BME280;60419;48.880;18.036;2022-12-18T00:21:55;100540.06;;;-7.24;77.28
72428;BME280;60419;48.880;18.036;2022-12-18T00:24:41;100545.69;;;-7.19;76.96
72428;BME280;60419;48.880;18.036;2022-12-18T00:27:26;100545.78;;;-7.47;77.63
72428;BME280;60419;48.880;18.036;2022-12-18T00:30:11;100549.06;;;-7.27;77.69
72428;BME280;60419;48.880;18.036;2022-12-18T00:32:57;100554.88;;;-7.41;78.15
72428;BME280;60419;48.880;18.036;2022-12-18T00:35:42;100560.94;;;-7.23;77.82
72428;BME280;60419;48.880;18.036;2022-12-18T00:38:28;100552.41;;;-6.99;76.14
72428;BME280;60419;48.880;18.036;2022-12-18T00:41:15;100567.84;;;-7.40;77.36
72428;BME280;60419;48.880;18.036;2022-12-18T00:44:23;100565.75;;;-7.36;77.54
72428;BME280;60419;48.880;18.036;2022-12-18T00:47:09;100572.75;;;-7.19;76.79
72428;BME280;60419;48.880;18.036;2022-12-18T00:49:54;100581.69;;;-7.11;76.35
72428;BME280;60419;48.880;18.036;2022-12-18T00:52:39;100548.44;;;-7.65;77.41
72428;BME280;60419;48.880;18.036;2022-12-18T00:55:25;100582.78;;;-7.40;77.45
72428;BME280;60419;48.880;18.036;2022-12-18T00:58:12;100578.19;;;-7.38;77.37
72428;BME280;60419;48.880;18.036;2022-12-18T01:00:58;100580.72;;;-7.28;76.87
72428;BME280;60419;48.880;18.036;2022-12-18T01:03:43;100582.00;;;-7.32;77.16
72428;BME280;60419;48.880;18.036;2022-12-18T01:06:30;100583.72;;;-7.23;76.82
72428;BME280;60419;48.880;18.036;2022-12-18T01:09:16;100588.41;;;-7.35;77.08
72428;BME280;60419;48.880;18.036;2022-12-18T01:12:01;100579.41;;;-7.50;77.24
72428;BME280;60419;48.880;18.036;2022-12-18T01:14:46;100582.63;;;-7.56;77.22
72428;BME280;60419;48.880;18.036;2022-12-18T01:17:32;100575.56;;;-7.38;77.17
72428;BME280;60419;48.880;18.036;2022-12-18T01:20:18;100576.25;;;-7.36;77.15
72428;BME280;60419;48.880;18.036;2022-12-18T01:23:03;100595.06;;;-7.41;77.04
72428;BME280;60419;48.880;18.036;2022-12-18T01:25:49;100596.72;;;-7.40;77.04
72428;BME280;60419;48.880;18.036;2022-12-18T01:28:34;100596.19;;;-7.43;76.61
72428;BME280;60419;48.880;18.036;2022-12-18T01:31:26;100598.28;;;-7.47;76.81
72428;BME280;60419;48.880;18.036;2022-12-18T01:34:12;100603.16;;;-7.34;76.77
72428;BME280;60419;48.880;18.036;2022-12-18T01:36:58;100605.19;;;-7.46;76.90
72428;BME280;60419;48.880;18.036;2022-12-18T01:39:43;100603.31;;;-7.35;76.21
72428;BME280;60419;48.880;18.036;2022-12-18T01:42:28;100614.22;;;-7.30;76.42
72428;BME280;60419;48.880;18.036;2022-12-18T01:48:02;100628.75;;;-7.54;76.88
72428;BME280;60419;48.880;18.036;2022-12-18T01:50:48;100632.28;;;-7.27;75.68
72428;BME280;60419;48.880;18.036;2022-12-18T01:53:36;100631.59;;;-7.47;76.46
72428;BME280;60419;48.880;18.036;2022-12-18T01:56:22;100618.06;;;-7.70;76.71
72428;BME280;60419;48.880;18.036;2022-12-18T01:59:09;100619.50;;;-7.58;76.42
72428;BME280;60419;48.880;18.036;2022-12-18T02:01:56;100634.22;;;-7.29;75.58
72428;BME280;60419;48.880;18.036;2022-12-18T02:04:42;100620.38;;;-6.96;74.50
72428;BME280;60419;48.880;18.036;2022-12-18T02:07:46;100644.38;;;-6.38;71.74
72428;BME280;60419;48.880;18.036;2022-12-18T02:17:44;100639.28;;;-5.47;67.27
72428;BME280;60419;48.880;18.036;2022-12-18T02:28:31;100654.81;;;-5.27;65.72
72428;BME280;60419;48.880;18.036;2022-12-18T02:31:22;100657.22;;;-5.58;66.07
72428;BME280;60419;48.880;18.036;2022-12-18T02:34:09;100654.16;;;-6.22;67.94
72428;BME280;60419;48.880;18.036;2022-12-18T02:36:57;100660.06;;;-6.29;67.82
72428;BME280;60419;48.880;18.036;2022-12-18T02:39:46;100638.97;;;-7.15;71.05
72428;BME280;60419;48.880;18.036;2022-12-18T02:42:32;100680.69;;;-6.94;72.17
72428;BME280;60419;48.880;18.036;2022-12-18T02:45:18;100677.78;;;-6.57;70.81
72428;BME280;60419;48.880;18.036;2022-12-18T02:48:03;100682.19;;;-6.13;69.56
72428;BME280;60419;48.880;18.036;2022-12-18T02:53:53;100676.81;;;-6.30;69.68
72428;BME280;60419;48.880;18.036;2022-12-18T02:56:46;100678.59;;;-6.04;68.96
72428;BME280;60419;48.880;18.036;2022-12-18T02:59:41;100654.13;;;-6.57;69.63
72428;BME280;60419;48.880;18.036;2022-12-18T03:02:51;100692.38;;;-6.62;71.05
72428;BME280;60419;48.880;18.036;2022-12-18T03:05:47;100708.75;;;-5.90;68.82
72428;BME280;60419;48.880;18.036;2022-12-18T03:08:42;100709.84;;;-5.67;67.69
72428;BME280;60419;48.880;18.036;2022-12-18T03:11:30;100722.47;;;-5.28;66.28
72428;BME280;60419;48.880;18.036;2022-12-18T03:14:37;100719.56;;;-5.16;64.97
72428;BME280;60419;48.880;18.036;2022-12-18T03:17:25;100707.00;;;-5.31;64.30
72428;BME280;60419;48.880;18.036;2022-12-18T03:20:15;100705.50;;;-5.33;64.08
72428;BME280;60419;48.880;18.036;2022-12-18T03:23:11;100698.75;;;-5.36;64.28
72428;BME280;60419;48.880;18.036;2022-12-18T03:26:01;100703.34;;;-5.38;64.92
72428;BME280;60419;48.880;18.036;2022-12-18T03:28:56;100697.28;;;-5.81;66.20
72428;BME280;60419;48.880;18.036;2022-12-18T03:31:49;100700.03;;;-5.91;66.13
72428;BME280;60419;48.880;18.036;2022-12-18T03:34:38;100674.69;;;-6.00;65.54
72428;BME280;60419;48.880;18.036;2022-12-18T03:37:25;100693.47;;;-6.21;67.08
72428;BME280;60419;48.880;18.036;2022-12-18T03:40:10;100702.59;;;-6.33;67.63
72428;BME280;60419;48.880;18.036;2022-12-18T03:43:10;100691.56;;;-6.37;67.61
72428;BME280;60419;48.880;18.036;2022-12-18T03:46:07;100707.28;;;-6.19;67.46
72428;BME280;60419;48.880;18.036;2022-12-18T03:49:43;100726.72;;;-6.12;66.42
72428;BME280;60419;48.880;18.036;2022-12-18T03:52:10;100711.31;;;-6.33;66.97
72428;BME280;60419;48.880;18.036;2022-12-18T03:54:59;100711.97;;;-6.04;65.71
72428;BME280;60419;48.880;18.036;2022-12-18T03:57:48;100729.25;;;-6.02;65.08
72428;BME280;60419;48.880;18.036;2022-12-18T04:00:33;100721.66;;;-5.79;65.44
72428;BME280;60419;48.880;18.036;2022-12-18T04:03:20;100732.78;;;-5.85;65.64
72428;BME280;60419;48.880;18.036;2022-12-18T04:06:07;100732.56;;;-5.66;65.51
72428;BME280;60419;48.880;18.036;2022-12-18T04:08:53;100728.31;;;-5.58;65.65
72428;BME280;60419;48.880;18.036;2022-12-18T04:11:42;100720.78;;;-5.53;64.89
72428;BME280;60419;48.880;18.036;2022-12-18T04:14:30;100734.31;;;-6.35;67.05
72428;BME280;60419;48.880;18.036;2022-12-18T04:17:21;100741.47;;;-5.93;66.37
72428;BME280;60419;48.880;18.036;2022-12-18T04:20:06;100750.72;;;-5.89;66.23
72428;BME280;60419;48.880;18.036;2022-12-18T04:22:52;100734.97;;;-6.77;68.31
72428;BME280;60419;48.880;18.036;2022-12-18T04:25:37;100725.03;;;-6.47;67.21
72428;BME280;60419;48.880;18.036;2022-12-18T04:28:23;100741.66;;;-6.20;66.61
72428;BME280;60419;48.880;18.036;2022-12-18T04:31:08;100744.59;;;-5.97;65.82
72428;BME280;60419;48.880;18.036;2022-12-18T04:33:53;100760.31;;;-5.79;65.35
72428;BME280;60419;48.880;18.036;2022-12-18T04:36:39;100746.00;;;-5.77;64.63
72428;BME280;60419;48.880;18.036;2022-12-18T04:39:24;100763.91;;;-5.46;65.45
72428;BME280;60419;48.880;18.036;2022-12-18T04:42:09;100773.63;;;-5.47;65.21
72428;BME280;60419;48.880;18.036;2022-12-18T04:44:55;100770.41;;;-5.93;65.56
72428;BME280;60419;48.880;18.036;2022-12-18T04:47:40;100772.56;;;-5.62;65.41
72428;BME280;60419;48.880;18.036;2022-12-18T04:50:26;100771.59;;;-5.61;64.48
72428;BME280;60419;48.880;18.036;2022-12-18T04:53:12;100778.13;;;-5.65;64.70
72428;BME280;60419;48.880;18.036;2022-12-18T04:56:12;100767.78;;;-5.93;65.66
72428;BME280;60419;48.880;18.036;2022-12-18T04:58:57;100769.75;;;-5.95;65.55
72428;BME280;60419;48.880;18.036;2022-12-18T05:01:43;100778.91;;;-6.69;67.05
72428;BME280;60419;48.880;18.036;2022-12-18T05:04:28;100774.09;;;-6.74;67.91
72428;BME280;60419;48.880;18.036;2022-12-18T05:07:13;100779.19;;;-6.36;67.33
72428;BME280;60419;48.880;18.036;2022-12-18T05:09:59;100769.03;;;-6.31;66.79
72428;BME280;60419;48.880;18.036;2022-12-18T05:12:44;100785.31;;;-6.28;66.44
72428;BME280;60419;48.880;18.036;2022-12-18T05:15:51;100769.72;;;-6.29;65.98
72428;BME280;60419;48.880;18.036;2022-12-18T05:18:37;100788.66;;;-6.43;66.69
72428;BME280;60419;48.880;18.036;2022-12-18T05:21:23;100793.09;;;-6.98;68.10
72428;BME280;60419;48.880;18.036;2022-12-18T05:24:08;100792.75;;;-7.58;70.95
72428;BME280;60419;48.880;18.036;2022-12-18T05:26:54;100796.13;;;-8.71;75.25
72428;BME280;60419;48.880;18.036;2022-12-18T05:29:39;100804.78;;;-8.90;75.73
72428;BME280;60419;48.880;18.036;2022-12-18T05:32:24;100807.44;;;-8.80;76.30
72428;BME280;60419;48.880;18.036;2022-12-18T05:35:10;100811.84;;;-8.81;76.04
72428;BME280;60419;48.880;18.036;2022-12-18T05:37:56;100812.91;;;-8.93;77.17
72428;BME280;60419;48.880;18.036;2022-12-18T05:40:42;100812.22;;;-8.95;77.56
72428;BME280;60419;48.880;18.036;2022-12-18T05:43:29;100796.50;;;-8.95;77.30
72428;BME280;60419;48.880;18.036;2022-12-18T05:46:16;100815.63;;;-9.14;78.08
72428;BME280;60419;48.880;18.036;2022-12-18T05:49:02;100811.22;;;-9.23;78.78
72428;BME280;60419;48.880;18.036;2022-12-18T05:51:48;100815.94;;;-8.98;77.66
72428;BME280;60419;48.880;18.036;2022-12-18T05:54:33;100813.03;;;-9.64;78.32
72428;BME280;60419;48.880;18.036;2022-12-18T05:57:18;100814.16;;;-9.57;78.50
72428;BME280;60419;48.880;18.036;2022-12-18T06:00:04;100820.88;;;-9.64;78.08
72428;BME280;60419;48.880;18.036;2022-12-18T06:02:50;100823.81;;;-9.57;78.54
72428;BME280;60419;48.880;18.036;2022-12-18T06:05:36;100810.31;;;-9.53;77.40
72428;BME280;60419;48.880;18.036;2022-12-18T06:08:22;100819.28;;;-9.46;77.65
72428;BME280;60419;48.880;18.036;2022-12-18T06:11:07;100830.25;;;-9.62;77.68
72428;BME280;60419;48.880;18.036;2022-12-18T06:13:54;100836.31;;;-9.61;77.57
72428;BME280;60419;48.880;18.036;2022-12-18T06:16:40;100842.25;;;-9.59;77.64
72428;BME280;60419;48.880;18.036;2022-12-18T06:19:25;100852.09;;;-9.42;76.58
72428;BME280;60419;48.880;18.036;2022-12-18T06:22:10;100854.47;;;-9.19;75.95
72428;BME280;60419;48.880;18.036;2022-12-18T06:24:55;100844.38;;;-9.33;75.78
72428;BME280;60419;48.880;18.036;2022-12-18T06:27:41;100832.25;;;-8.84;73.97
72428;BME280;60419;48.880;18.036;2022-12-18T06:30:27;100870.75;;;-8.46;72.43
72428;BME280;60419;48.880;18.036;2022-12-18T06:33:12;100872.41;;;-8.06;71.85
72428;BME280;60419;48.880;18.036;2022-12-18T06:36:03;100879.88;;;-7.45;69.68
72428;BME280;60419;48.880;18.036;2022-12-18T06:38:48;100873.53;;;-7.52;69.52
72428;BME280;60419;48.880;18.036;2022-12-18T06:41:34;100869.88;;;-7.78;68.69
72428;BME280;60419;48.880;18.036;2022-12-18T06:44:19;100864.69;;;-8.37;71.47
72428;BME280;60419;48.880;18.036;2022-12-18T06:47:05;100876.22;;;-8.88;73.25
72428;BME280;60419;48.880;18.036;2022-12-18T06:49:50;100860.72;;;-9.10;73.93
72428;BME280;60419;48.880;18.036;2022-12-18T06:52:35;100887.03;;;-8.13;71.86
72428;BME280;60419;48.880;18.036;2022-12-18T06:55:22;100881.28;;;-7.50;69.87
72428;BME280;60419;48.880;18.036;2022-12-18T06:58:07;100885.50;;;-7.40;68.60
72428;BME280;60419;48.880;18.036;2022-12-18T07:00:52;100872.16;;;-7.19;68.00
72428;BME280;60419;48.880;18.036;2022-12-18T07:03:39;100852.25;;;-7.49;68.60
72428;BME280;60419;48.880;18.036;2022-12-18T07:06:25;100893.94;;;-6.99;67.55
72428;BME280;60419;48.880;18.036;2022-12-18T07:09:11;100900.72;;;-7.06;67.22
72428;BME280;60419;48.880;18.036;2022-12-18T07:11:56;100911.66;;;-7.48;68.73
72428;BME280;60419;48.880;18.036;2022-12-18T07:14:41;100907.75;;;-6.97;67.52
72428;BME280;60419;48.880;18.036;2022-12-18T07:17:27;100917.59;;;-7.36;67.93
72428;BME280;60419;48.880;18.036;2022-12-18T07:20:12;100923.28;;;-7.13;67.49
72428;BME280;60419;48.880;18.036;2022-12-18T07:22:58;100946.19;;;-7.33;67.71
72428;BME280;60419;48.880;18.036;2022-12-18T07:25:43;100942.88;;;-7.54;67.69
72428;BME280;60419;48.880;18.036;2022-12-18T07:28:28;100934.22;;;-7.65;67.78
72428;BME280;60419;48.880;18.036;2022-12-18T07:31:17;100939.31;;;-7.63;66.95
72428;BME280;60419;48.880;18.036;2022-12-18T07:34:03;100956.34;;;-7.77;67.66
72428;BME280;60419;48.880;18.036;2022-12-18T07:36:48;100948.59;;;-7.12;66.35
72428;BME280;60419;48.880;18.036;2022-12-18T07:39:33;100961.63;;;-7.30;66.94
72428;BME280;60419;48.880;18.036;2022-12-18T07:42:19;100959.78;;;-6.82;65.91
72428;BME280;60419;48.880;18.036;2022-12-18T07:45:16;100961.81;;;-6.48;65.36
72428;BME280;60419;48.880;18.036;2022-12-18T07:48:01;100971.75;;;-6.70;65.56
72428;BME280;60419;48.880;18.036;2022-12-18T07:50:47;100957.06;;;-6.63;65.50
72428;BME280;60419;48.880;18.036;2022-12-18T07:53:34;100971.00;;;-6.90;67.12
72428;BME280;60419;48.880;18.036;2022-12-18T07:56:20;100971.38;;;-6.75;66.44
72428;BME280;60419;48.880;18.036;2022-12-18T07:59:05;100974.25;;;-6.23;65.77
72428;BME280;60419;48.880;18.036;2022-12-18T08:01:50;100978.16;;;-6.27;65.52
72428;BME280;60419;48.880;18.036;2022-12-18T08:04:36;100986.59;;;-5.70;64.65
72428;BME280;60419;48.880;18.036;2022-12-18T08:07:21;100979.75;;;-5.80;64.72
72428;BME280;60419;48.880;18.036;2022-12-18T08:10:07;100993.72;;;-5.44;63.61
72428;BME280;60419;48.880;18.036;2022-12-18T08:12:53;100993.94;;;-5.37;63.18
72428;BME280;60419;48.880;18.036;2022-12-18T08:15:38;100991.78;;;-5.60;63.56
72428;BME280;60419;48.880;18.036;2022-12-18T08:18:23;100990.44;;;-6.00;63.74
72428;BME280;60419;48.880;18.036;2022-12-18T08:21:20;100992.69;;;-6.05;64.71
72428;BME280;60419;48.880;18.036;2022-12-18T08:24:09;101004.94;;;-5.96;64.53
72428;BME280;60419;48.880;18.036;2022-12-18T08:26:55;101000.38;;;-5.76;64.78
72428;BME280;60419;48.880;18.036;2022-12-18T08:29:42;100792.81;;;-6.95;63.92
72428;BME280;60419;48.880;18.036;2022-12-18T08:32:27;101009.91;;;-6.66;67.06
72428;BME280;60419;48.880;18.036;2022-12-18T08:35:13;100994.66;;;-5.89;65.75
72428;BME280;60419;48.880;18.036;2022-12-18T08:37:58;101006.34;;;-5.30;64.80
72428;BME280;60419;48.880;18.036;2022-12-18T08:40:44;100997.59;;;-5.30;64.51
72428;BME280;60419;48.880;18.036;2022-12-18T08:43:29;101003.81;;;-5.13;63.65
72428;BME280;60419;48.880;18.036;2022-12-18T08:46:39;101004.44;;;-5.64;64.75
72428;BME280;60419;48.880;18.036;2022-12-18T08:49:25;100986.59;;;-6.51;67.41
72428;BME280;60419;48.880;18.036;2022-12-18T08:52:10;101002.50;;;-6.25;74.41
72428;BME280;60419;48.880;18.036;2022-12-18T08:54:56;101002.91;;;-6.02;70.55
72428;BME280;60419;48.880;18.036;2022-12-18T08:57:42;101011.28;;;-4.75;76.96
72428;BME280;60419;48.880;18.036;2022-12-18T09:00:27;101008.38;;;-5.42;66.23
72428;BME280;60419;48.880;18.036;2022-12-18T09:03:17;100989.84;;;-5.58;66.59
72428;BME280;60419;48.880;18.036;2022-12-18T09:06:04;101007.75;;;-5.35;65.52
72428;BME280;60419;48.880;18.036;2022-12-18T09:08:49;101005.66;;;-6.21;67.43
72428;BME280;60419;48.880;18.036;2022-12-18T09:11:35;101003.53;;;-6.63;69.36
72428;BME280;60419;48.880;18.036;2022-12-18T09:14:20;101016.50;;;-6.89;70.83
72428;BME280;60419;48.880;18.036;2022-12-18T09:17:05;101012.94;;;-6.61;69.63
72428;BME280;60419;48.880;18.036;2022-12-18T09:19:51;101015.03;;;-5.91;68.27
72428;BME280;60419;48.880;18.036;2022-12-18T09:22:36;101024.94;;;-5.31;66.51
72428;BME280;60419;48.880;18.036;2022-12-18T09:25:22;101009.25;;;-4.81;64.63
72428;BME280;60419;48.880;18.036;2022-12-18T09:28:15;101016.56;;;-4.75;64.33
72428;BME280;60419;48.880;18.036;2022-12-18T09:31:06;101013.88;;;-4.83;67.89
72428;BME280;60419;48.880;18.036;2022-12-18T09:33:55;101008.84;;;-4.68;67.59
72428;BME280;60419;48.880;18.036;2022-12-18T09:36:40;100996.72;;;-4.87;65.69
72428;BME280;60419;48.880;18.036;2022-12-18T09:39:26;101014.50;;;-5.59;66.13
72428;BME280;60419;48.880;18.036;2022-12-18T09:42:21;101014.31;;;-6.57;69.86
72428;BME280;60419;48.880;18.036;2022-12-18T09:45:12;101015.09;;;-5.65;68.41
72428;BME280;60419;48.880;18.036;2022-12-18T09:48:01;101015.63;;;-4.91;66.15
72428;BME280;60419;48.880;18.036;2022-12-18T09:50:47;100974.06;;;-5.06;65.29
72428;BME280;60419;48.880;18.036;2022-12-18T09:53:37;101013.63;;;-4.98;65.25
72428;BME280;60419;48.880;18.036;2022-12-18T09:56:28;101017.50;;;-4.84;65.50
72428;BME280;60419;48.880;18.036;2022-12-18T09:59:24;101014.06;;;-3.26;81.92
72428;BME280;60419;48.880;18.036;2022-12-18T10:02:17;101009.09;;;-3.94;65.00
72428;BME280;60419;48.880;18.036;2022-12-18T10:11:51;101000.00;;;-5.63;67.46
72428;BME280;60419;48.880;18.036;2022-12-18T10:17:36;100991.03;;;-5.00;66.61
72428;BME280;60419;48.880;18.036;2022-12-18T10:26:10;100994.78;;;-4.77;65.62
72428;BME280;60419;48.880;18.036;2022-12-18T10:28:57;100986.38;;;-5.76;67.91
72428;BME280;60419;48.880;18.036;2022-12-18T10:31:44;100989.59;;;-5.82;68.99
72428;BME280;60419;48.880;18.036;2022-12-18T10:34:29;100985.56;;;-5.95;69.05
72428;BME280;60419;48.880;18.036;2022-12-18T10:37:20;100937.34;;;-6.49;70.37
72428;BME280;60419;48.880;18.036;2022-12-18T10:40:13;100978.25;;;-5.83;69.83
72428;BME280;60419;48.880;18.036;2022-12-18T10:43:13;100971.13;;;-5.47;69.00
72428;BME280;60419;48.880;18.036;2022-12-18T10:48:55;100955.53;;;-5.22;67.12
72428;BME280;60419;48.880;18.036;2022-12-18T10:51:41;100956.84;;;-5.18;67.25
72428;BME280;60419;48.880;18.036;2022-12-18T10:54:28;100971.38;;;-4.80;66.02
72428;BME280;60419;48.880;18.036;2022-12-18T10:57:38;100966.31;;;-4.22;65.42
72428;BME280;60419;48.880;18.036;2022-12-18T11:00:29;100962.50;;;-5.05;66.63
72428;BME280;60419;48.880;18.036;2022-12-18T11:03:37;100953.13;;;-5.33;68.24
72428;BME280;60419;48.880;18.036;2022-12-18T11:06:24;100950.34;;;-4.63;66.02
72428;BME280;60419;48.880;18.036;2022-12-18T11:09:25;100962.47;;;-6.01;69.46
72428;BME280;60419;48.880;18.036;2022-12-18T11:12:18;100950.09;;;-5.65;68.72
72428;BME280;60419;48.880;18.036;2022-12-18T11:15:04;100951.25;;;-5.15;68.02
72428;BME280;60419;48.880;18.036;2022-12-18T11:17:51;100953.25;;;-5.43;67.74
72428;BME280;60419;48.880;18.036;2022-12-18T11:20:38;100946.19;;;-5.08;68.98
72428;BME280;60419;48.880;18.036;2022-12-18T11:23:24;100959.41;;;-3.99;65.81
72428;BME280;60419;48.880;18.036;2022-12-18T11:26:10;100951.81;;;-3.36;62.82
72428;BME280;60419;48.880;18.036;2022-12-18T11:29:12;100933.75;;;-4.47;64.99
72428;BME280;60419;48.880;18.036;2022-12-18T11:35:13;100954.38;;;-4.43;66.51
72428;BME280;60419;48.880;18.036;2022-12-18T11:41:28;100957.75;;;-3.34;63.04
72428;BME280;60419;48.880;18.036;2022-12-18T11:44:48;100947.69;;;-3.64;63.18
72428;BME280;60419;48.880;18.036;2022-12-18T11:47:57;100953.44;;;-4.09;64.36
72428;BME280;60419;48.880;18.036;2022-12-18T11:50:52;100949.09;;;-4.43;65.13
72428;BME280;60419;48.880;18.036;2022-12-18T11:53:38;100955.75;;;-4.22;64.92
72428;BME280;60419;48.880;18.036;2022-12-18T11:56:35;100944.75;;;-4.52;65.54
72428;BME280;60419;48.880;18.036;2022-12-18T12:08:38;100954.38;;;-3.12;61.79
72428;BME280;60419;48.880;18.036;2022-12-18T12:15:01;100953.66;;;-2.81;60.85
72428;BME280;60419;48.880;18.036;2022-12-18T12:30:16;100968.34;;;-3.67;61.97
72428;BME280;60419;48.880;18.036;2022-12-18T12:39:21;100969.00;;;-3.81;63.45
72428;BME280;60419;48.880;18.036;2022-12-18T12:42:35;100971.50;;;-3.55;63.16
72428;BME280;60419;48.880;18.036;2022-12-18T12:45:42;100972.47;;;-3.73;62.74
72428;BME280;60419;48.880;18.036;2022-12-18T12:51:40;100947.16;;;-2.39;59.92
72428;BME280;60419;48.880;18.036;2022-12-18T12:54:27;100976.56;;;-3.21;62.58
72428;BME280;60419;48.880;18.036;2022-12-18T12:57:54;100972.63;;;-3.50;62.38
72428;BME280;60419;48.880;18.036;2022-12-18T13:03:49;100961.72;;;-3.71;63.38
72428;BME280;60419;48.880;18.036;2022-12-18T13:13:12;100971.69;;;-2.85;61.72
72428;BME280;60419;48.880;18.036;2022-12-18T13:16:06;100977.75;;;-3.32;62.84
72428;BME280;60419;48.880;18.036;2022-12-18T13:18:57;100963.06;;;-3.75;63.91
72428;BME280;60419;48.880;18.036;2022-12-18T13:21:43;100969.31;;;-3.52;63.22
72428;BME280;60419;48.880;18.036;2022-12-18T13:24:37;100959.63;;;-2.87;61.65
72428;BME280;60419;48.880;18.036;2022-12-18T13:36:25;100949.31;;;-2.74;61.72
72428;BME280;60419;48.880;18.036;2022-12-18T13:39:22;100946.56;;;-2.89;61.58
72428;BME280;60419;48.880;18.036;2022-12-18T13:44:54;100955.03;;;-2.00;59.20
72428;BME280;60419;48.880;18.036;2022-12-18T13:47:43;100964.81;;;-1.39;57.87
72428;BME280;60419;48.880;18.036;2022-12-18T13:50:29;100957.41;;;-1.44;57.25
72428;BME280;60419;48.880;18.036;2022-12-18T13:53:30;100957.56;;;-0.78;55.76
72428;BME280;60419;48.880;18.036;2022-12-18T13:56:17;100967.16;;;-1.45;57.32
72428;BME280;60419;48.880;18.036;2022-12-18T13:59:21;100855.47;;;-3.81;61.16
72428;BME280;60419;48.880;18.036;2022-12-18T14:02:20;100961.31;;;-2.55;60.79
72428;BME280;60419;48.880;18.036;2022-12-18T14:05:21;100927.59;;;-3.09;61.56
72428;BME280;60419;48.880;18.036;2022-12-18T14:08:13;100968.00;;;-3.31;62.59
72428;BME280;60419;48.880;18.036;2022-12-18T14:11:00;100958.59;;;-2.78;62.16
72428;BME280;60419;48.880;18.036;2022-12-18T14:13:46;100969.47;;;-2.73;61.21
72428;BME280;60419;48.880;18.036;2022-12-18T14:16:32;100981.59;;;-1.47;58.76
72428;BME280;60419;48.880;18.036;2022-12-18T14:19:19;100981.28;;;-1.29;57.31
72428;BME280;60419;48.880;18.036;2022-12-18T14:22:04;100979.97;;;-0.95;56.16
72428;BME280;60419;48.880;18.036;2022-12-18T14:25:52;100990.91;;;-1.28;57.12
72428;BME280;60419;48.880;18.036;2022-12-18T14:28:43;100981.84;;;-1.34;57.50
72428;BME280;60419;48.880;18.036;2022-12-18T14:31:30;100985.34;;;-0.59;55.36
72428;BME280;60419;48.880;18.036;2022-12-18T14:34:16;100993.84;;;-0.64;61.18
72428;BME280;60419;48.880;18.036;2022-12-18T14:37:02;100992.69;;;-0.10;54.46
72428;BME280;60419;48.880;18.036;2022-12-18T14:39:59;100997.19;;;-0.25;53.77
72428;BME280;60419;48.880;18.036;2022-12-18T14:42:45;100980.50;;;-0.55;54.02
72428;BME280;60419;48.880;18.036;2022-12-18T14:45:41;101002.44;;;-0.32;53.50
72428;BME280;60419;48.880;18.036;2022-12-18T14:51:25;101022.94;;;-0.26;53.25
72428;BME280;60419;48.880;18.036;2022-12-18T14:54:16;101032.88;;;-0.49;54.19
72428;BME280;60419;48.880;18.036;2022-12-18T14:57:06;101034.75;;;-0.28;53.33
72428;BME280;60419;48.880;18.036;2022-12-18T15:00:07;101020.47;;;-0.27;53.49
72428;BME280;60419;48.880;18.036;2022-12-18T15:02:59;101025.59;;;-0.11;53.01
72428;BME280;60419;48.880;18.036;2022-12-18T15:05:45;101024.81;;;-0.71;54.75
72428;BME280;60419;48.880;18.036;2022-12-18T15:08:35;101038.16;;;-0.64;54.48
72428;BME280;60419;48.880;18.036;2022-12-18T15:11:59;101046.31;;;-0.51;54.40
72428;BME280;60419;48.880;18.036;2022-12-18T15:14:41;101049.91;;;-1.11;55.39
72428;BME280;60419;48.880;18.036;2022-12-18T15:17:27;101048.38;;;-1.06;55.26
72428;BME280;60419;48.880;18.036;2022-12-18T15:20:12;101063.75;;;-1.01;55.40
72428;BME280;60419;48.880;18.036;2022-12-18T15:22:59;101065.00;;;-1.12;56.85
72428;BME280;60419;48.880;18.036;2022-12-18T15:25:45;101064.34;;;-1.52;57.49
72428;BME280;60419;48.880;18.036;2022-12-18T15:28:43;101067.69;;;-1.35;56.89
72428;BME280;60419;48.880;18.036;2022-12-18T15:31:33;101063.84;;;-1.32;56.75
72428;BME280;60419;48.880;18.036;2022-12-18T15:34:22;101048.06;;;-1.49;56.25
72428;BME280;60419;48.880;18.036;2022-12-18T15:37:08;101075.16;;;-1.38;56.15
72428;BME280;60419;48.880;18.036;2022-12-18T15:39:53;101083.28;;;-1.63;56.65
72428;BME280;60419;48.880;18.036;2022-12-18T15:42:38;101084.75;;;-1.60;56.39
72428;BME280;60419;48.880;18.036;2022-12-18T15:45:42;101083.13;;;-1.93;57.36
72428;BME280;60419;48.880;18.036;2022-12-18T15:48:28;101100.75;;;-1.77;57.40
72428;BME280;60419;48.880;18.036;2022-12-18T15:51:17;101077.56;;;-2.06;58.19
72428;BME280;60419;48.880;18.036;2022-12-18T15:54:06;101111.56;;;-2.26;59.24
72428;BME280;60419;48.880;18.036;2022-12-18T15:56:54;101104.50;;;-2.42;59.39
72428;BME280;60419;48.880;18.036;2022-12-18T15:59:58;101107.19;;;-2.58;60.68
72428;BME280;60419;48.880;18.036;2022-12-18T16:02:43;101111.06;;;-1.82;75.12
72428;BME280;60419;48.880;18.036;2022-12-18T16:05:29;101110.22;;;-1.82;67.03
72428;BME280;60419;48.880;18.036;2022-12-18T16:08:15;101101.25;;;-4.17;67.52
72428;BME280;60419;48.880;18.036;2022-12-18T16:11:00;101109.22;;;-5.13;70.33
72428;BME280;60419;48.880;18.036;2022-12-18T16:13:46;101089.91;;;-5.40;71.90
72428;BME280;60419;48.880;18.036;2022-12-18T16:16:32;101090.13;;;-4.89;71.11
72428;BME280;60419;48.880;18.036;2022-12-18T16:19:18;101101.44;;;-4.02;68.82